sensor_id;sensor_type;location;lat;lon;timestamp;temperature;humidity
64939;DHT22;51453;47.738;7.420;2022-12-16T00:00:24;-1.60;99.90
64939;DHT22;51453;47.738;7.420;2022-12-16T00:02:50;-1.60;99.90
64939;DHT22;51453;47.738;7.420;2022-12-16T00:05:16;-1.70;99.90
64939;DHT22;51453;47.738;7.420;2022-12-16T00:07:45;-1.70;99.90
64939;DHT22;51453;47.738;7.420;2022-12-16T00:10:11;-1.70;99.90
64939;DHT22;51453;47.738;7.420;2022-12-16T00:12:37;-1.70;99.90
64939;DHT22;51453;47.738;7.420;2022-12-16T00:15:03;-1.80;99.90
64939;DHT22;51453;47.738;7.420;2022-12-16T00:17:28;-1.80;99.90
64939;DHT22;51453;47.738;7.420;2022-12-16T00:19:55;-1.80;99.90
64939;DHT22;51453;47.738;7.420;2022-12-16T00:22:22;-1.80;99.90
64939;DHT22;51453;47.738;7.420;2022-12-16T00:24:47;-1.90;99.90
64939;DHT22;51453;47.738;7.420;2022-12-16T00:27:13;-1.80;99.90
64939;DHT22;51453;47.738;7.420;2022-12-16T00:29:38;-1.80;99.90
64939;DHT22;51453;47.738;7.420;2022-12-16T00:32:04;-1.80;99.90
64939;DHT22;51453;47.738;7.420;2022-12-16T00:34:30;-1.80;99.90
64939;DHT22;51453;47.738;7.420;2022-12-16T00:36:57;-1.90;99.90
64939;DHT22;51453;47.738;7.420;2022-12-16T00:39:23;-1.80;99.90
64939;DHT22;51453;47.738;7.420;2022-12-16T00:41:49;-1.80;99.90
64939;DHT22;51453;47.738;7.420;2022-12-16T00:44:15;-1.90;99.90
64939;DHT22;51453;47.738;7.420;2022-12-16T00:46:41;-1.90;99.90
64939;DHT22;51453;47.738;7.420;2022-12-16T00:49:07;-1.90;99.90
64939;DHT22;51453;47.738;7.420;2022-12-16T00:51:32;-1.80;99.90
64939;DHT22;51453;47.738;7.420;2022-12-16T00:53:58;-1.80;99.90
64939;DHT22;51453;47.738;7.420;2022-12-16T00:56:24;-1.80;99.90
64939;DHT22;51453;47.738;7.420;2022-12-16T00:58:49;-1.80;99.90
64939;DHT22;51453;47.738;7.420;2022-12-16T01:01:15;-1.80;99.90
64939;DHT22;51453;47.738;7.420;2022-12-16T01:03:41;-1.80;99.90
64939;DHT22;51453;47.738;7.420;2022-12-16T01:06:15;-1.80;99.90
64939;DHT22;51453;47.738;7.420;2022-12-16T01:08:41;-1.80;99.90
64939;DHT22;51453;47.738;7.420;2022-12-16T01:11:17;-1.80;99.90
64939;DHT22;51453;47.738;7.420;2022-12-16T01:13:43;-1.70;99.90
64939;DHT22;51453;47.738;7.420;2022-12-16T01:16:09;-1.70;99.90
64939;DHT22;51453;47.738;7.420;2022-12-16T01:18:35;-1.70;99.90
64939;DHT22;51453;47.738;7.420;2022-12-16T01:21:03;-1.70;99.90
64939;DHT22;51453;47.738;7.420;2022-12-16T01:23:29;-1.80;99.90
64939;DHT22;51453;47.738;7.420;2022-12-16T01:25:57;-1.70;99.90
64939;DHT22;51453;47.738;7.420;2022-12-16T01:28:24;-1.70;99.90
64939;DHT22;51453;47.738;7.420;2022-12-16T01:30:54;-1.70;99.90
64939;DHT22;51453;47.738;7.420;2022-12-16T01:33:21;-1.70;99.90
64939;DHT22;51453;47.738;7.420;2022-12-16T01:35:47;-1.80;99.90
64939;DHT22;51453;47.738;7.420;2022-12-16T01:38:13;-1.70;99.90
64939;DHT22;51453;47.738;7.420;2022-12-16T01:40:38;-1.80;99.90
64939;DHT22;51453;47.738;7.420;2022-12-16T01:43:11;-1.80;99.90
64939;DHT22;51453;47.738;7.420;2022-12-16T01:45:38;-1.80;99.90
64939;DHT22;51453;47.738;7.420;2022-12-16T01:48:21;-1.80;99.90
64939;DHT22;51453;47.738;7.420;2022-12-16T01:50:49;-1.80;99.90
64939;DHT22;51453;47.738;7.420;2022-12-16T01:53:16;-1.80;99.90
64939;DHT22;51453;47.738;7.420;2022-12-16T01:55:47;-1.80;99.90
64939;DHT22;51453;47.738;7.420;2022-12-16T01:58:20;-1.80;99.90
64939;DHT22;51453;47.738;7.420;2022-12-16T02:00:47;-1.80;99.90
64939;DHT22;51453;47.738;7.420;2022-12-16T02:03:14;-1.80;99.90
64939;DHT22;51453;47.738;7.420;2022-12-16T02:05:40;-1.80;99.90
64939;DHT22;51453;47.738;7.420;2022-12-16T02:08:11;-1.80;99.90
64939;DHT22;51453;47.738;7.420;2022-12-16T02:16:15;-1.80;99.90
64939;DHT22;51453;47.738;7.420;2022-12-16T02:30:01;-1.70;99.90
64939;DHT22;51453;47.738;7.420;2022-12-16T02:32:47;-1.70;99.90
64939;DHT22;51453;47.738;7.420;2022-12-16T02:38:20;-1.70;99.90
64939;DHT22;51453;47.738;7.420;2022-12-16T02:40:54;-1.70;99.90
64939;DHT22;51453;47.738;7.420;2022-12-16T02:46:10;-1.70;99.90
64939;DHT22;51453;47.738;7.420;2022-12-16T02:48:36;-1.60;99.90
64939;DHT22;51453;47.738;7.420;2022-12-16T02:51:02;-1.70;99.90
64939;DHT22;51453;47.738;7.420;2022-12-16T02:53:29;-1.60;99.90
64939;DHT22;51453;47.738;7.420;2022-12-16T02:56:15;-1.60;99.90
64939;DHT22;51453;47.738;7.420;2022-12-16T03:01:38;-1.60;99.90
64939;DHT22;51453;47.738;7.420;2022-12-16T03:04:26;-1.60;99.90
64939;DHT22;51453;47.738;7.420;2022-12-16T03:06:55;-1.50;99.90
64939;DHT22;51453;47.738;7.420;2022-12-16T03:09:26;-1.50;99.90
64939;DHT22;51453;47.738;7.420;2022-12-16T03:11:53;-1.50;99.90
64939;DHT22;51453;47.738;7.420;2022-12-16T03:14:22;-1.50;99.90
64939;DHT22;51453;47.738;7.420;2022-12-16T03:16:49;-1.50;99.90
64939;DHT22;51453;47.738;7.420;2022-12-16T03:19:16;-1.50;99.90
64939;DHT22;51453;47.738;7.420;2022-12-16T03:21:54;-1.50;99.90
64939;DHT22;51453;47.738;7.420;2022-12-16T03:24:20;-1.50;99.90
64939;DHT22;51453;47.738;7.420;2022-12-16T03:27:03;-1.50;99.90
64939;DHT22;51453;47.738;7.420;2022-12-16T03:29:44;-1.50;99.90
64939;DHT22;51453;47.738;7.420;2022-12-16T03:32:20;-1.60;99.90
64939;DHT22;51453;47.738;7.420;2022-12-16T03:34:52;-1.60;99.90
64939;DHT22;51453;47.738;7.420;2022-12-16T03:37:19;-1.60;99.90
64939;DHT22;51453;47.738;7.420;2022-12-16T03:39:50;-1.60;99.90
64939;DHT22;51453;47.738;7.420;2022-12-16T03:42:17;-1.60;99.90
64939;DHT22;51453;47.738;7.420;2022-12-16T03:44:44;-1.60;99.90
64939;DHT22;51453;47.738;7.420;2022-12-16T03:47:11;-1.60;99.90
64939;DHT22;51453;47.738;7.420;2022-12-16T03:49:38;-1.60;99.90
64939;DHT22;51453;47.738;7.420;2022-12-16T03:52:04;-1.60;99.90
64939;DHT22;51453;47.738;7.420;2022-12-16T03:54:30;-1.60;99.90
64939;DHT22;51453;47.738;7.420;2022-12-16T03:56:55;-1.60;99.90
64939;DHT22;51453;47.738;7.420;2022-12-16T03:59:21;-1.50;99.90
64939;DHT22;51453;47.738;7.420;2022-12-16T04:01:47;-1.60;99.90
64939;DHT22;51453;47.738;7.420;2022-12-16T04:04:12;-1.60;99.90
64939;DHT22;51453;47.738;7.420;2022-12-16T04:06:38;-1.60;99.90
64939;DHT22;51453;47.738;7.420;2022-12-16T04:09:04;-1.60;99.90
64939;DHT22;51453;47.738;7.420;2022-12-16T04:11:30;-1.60;99.90
64939;DHT22;51453;47.738;7.420;2022-12-16T04:14:14;-1.60;99.90
64939;DHT22;51453;47.738;7.420;2022-12-16T04:17:11;-1.60;99.90
64939;DHT22;51453;47.738;7.420;2022-12-16T04:19:55;-1.60;99.90
64939;DHT22;51453;47.738;7.420;2022-12-16T04:22:42;-1.60;99.90
64939;DHT22;51453;47.738;7.420;2022-12-16T04:25:33;-1.60;99.90
64939;DHT22;51453;47.738;7.420;2022-12-16T04:28:00;-1.50;99.90
64939;DHT22;51453;47.738;7.420;2022-12-16T04:30:27;-1.60;99.90
64939;DHT22;51453;47.738;7.420;2022-12-16T04:33:00;-1.60;99.90
64939;DHT22;51453;47.738;7.420;2022-12-16T04:35:45;-1.60;99.90
64939;DHT22;51453;47.738;7.420;2022-12-16T04:38:30;-1.70;99.90
64939;DHT22;51453;47.738;7.420;2022-12-16T04:41:15;-1.60;99.90
64939;DHT22;51453;47.738;7.420;2022-12-16T04:44:00;-1.60;99.90
64939;DHT22;51453;47.738;7.420;2022-12-16T04:46:44;-1.60;99.90
64939;DHT22;51453;47.738;7.420;2022-12-16T04:49:28;-1.60;99.90
64939;DHT22;51453;47.738;7.420;2022-12-16T04:52:13;-1.60;99.90
64939;DHT22;51453;47.738;7.420;2022-12-16T04:54:57;-1.60;99.90
64939;DHT22;51453;47.738;7.420;2022-12-16T04:57:46;-1.60;99.90
64939;DHT22;51453;47.738;7.420;2022-12-16T05:00:31;-1.60;99.90
64939;DHT22;51453;47.738;7.420;2022-12-16T05:03:15;-1.60;99.90
64939;DHT22;51453;47.738;7.420;2022-12-16T05:05:59;-1.70;99.90
64939;DHT22;51453;47.738;7.420;2022-12-16T05:08:43;-1.60;99.90
64939;DHT22;51453;47.738;7.420;2022-12-16T05:11:27;-1.70;99.90
64939;DHT22;51453;47.738;7.420;2022-12-16T05:14:11;-1.70;99.90
64939;DHT22;51453;47.738;7.420;2022-12-16T05:16:55;-1.70;99.90
64939;DHT22;51453;47.738;7.420;2022-12-16T05:19:39;-1.70;99.90
64939;DHT22;51453;47.738;7.420;2022-12-16T05:22:23;-1.70;99.90
64939;DHT22;51453;47.738;7.420;2022-12-16T05:25:08;-1.70;99.90
64939;DHT22;51453;47.738;7.420;2022-12-16T05:27:53;-1.70;99.90
64939;DHT22;51453;47.738;7.420;2022-12-16T05:30:37;-1.70;99.90
64939;DHT22;51453;47.738;7.420;2022-12-16T05:33:22;-1.60;99.90
64939;DHT22;51453;47.738;7.420;2022-12-16T05:36:06;-1.70;99.90
64939;DHT22;51453;47.738;7.420;2022-12-16T05:38:50;-1.60;99.90
64939;DHT22;51453;47.738;7.420;2022-12-16T05:41:35;-1.70;99.90
64939;DHT22;51453;47.738;7.420;2022-12-16T05:44:19;-1.70;99.90
64939;DHT22;51453;47.738;7.420;2022-12-16T05:47:03;-1.70;99.90
64939;DHT22;51453;47.738;7.420;2022-12-16T05:49:47;-1.70;99.90
64939;DHT22;51453;47.738;7.420;2022-12-16T05:52:31;-1.70;99.90
64939;DHT22;51453;47.738;7.420;2022-12-16T05:55:15;-1.70;99.90
64939;DHT22;51453;47.738;7.420;2022-12-16T05:57:59;-1.70;99.90
64939;DHT22;51453;47.738;7.420;2022-12-16T06:00:43;-1.70;99.90
64939;DHT22;51453;47.738;7.420;2022-12-16T06:03:27;-1.70;99.90
64939;DHT22;51453;47.738;7.420;2022-12-16T06:06:11;-1.70;99.90
64939;DHT22;51453;47.738;7.420;2022-12-16T06:08:55;-1.70;99.90
64939;DHT22;51453;47.738;7.420;2022-12-16T06:11:40;-1.70;99.90
64939;DHT22;51453;47.738;7.420;2022-12-16T06:14:24;-1.70;99.90
64939;DHT22;51453;47.738;7.420;2022-12-16T06:17:07;-1.70;99.90
64939;DHT22;51453;47.738;7.420;2022-12-16T06:19:51;-1.70;99.90
64939;DHT22;51453;47.738;7.420;2022-12-16T06:22:35;-1.70;99.90
64939;DHT22;51453;47.738;7.420;2022-12-16T06:25:19;-1.70;99.90
64939;DHT22;51453;47.738;7.420;2022-12-16T06:28:04;-1.70;99.90
64939;DHT22;51453;47.738;7.420;2022-12-16T06:30:48;-1.70;99.90
64939;DHT22;51453;47.738;7.420;2022-12-16T06:33:32;-1.60;99.90
64939;DHT22;51453;47.738;7.420;2022-12-16T06:36:16;-1.70;99.90
64939;DHT22;51453;47.738;7.420;2022-12-16T06:39:00;-1.70;99.90
64939;DHT22;51453;47.738;7.420;2022-12-16T06:41:44;-1.70;99.90
64939;DHT22;51453;47.738;7.420;2022-12-16T06:44:28;-1.70;99.90
64939;DHT22;51453;47.738;7.420;2022-12-16T06:47:12;-1.70;99.90
64939;DHT22;51453;47.738;7.420;2022-12-16T06:49:57;-1.70;99.90
64939;DHT22;51453;47.738;7.420;2022-12-16T06:52:44;-1.70;99.90
64939;DHT22;51453;47.738;7.420;2022-12-16T06:55:28;-1.70;99.90
64939;DHT22;51453;47.738;7.420;2022-12-16T06:58:13;-1.70;99.90
64939;DHT22;51453;47.738;7.420;2022-12-16T07:00:57;-1.70;99.90
64939;DHT22;51453;47.738;7.420;2022-12-16T07:03:42;-1.70;99.90
64939;DHT22;51453;47.738;7.420;2022-12-16T07:06:26;-1.60;99.90
64939;DHT22;51453;47.738;7.420;2022-12-16T07:09:10;-1.60;99.90
64939;DHT22;51453;47.738;7.420;2022-12-16T07:11:54;-1.60;99.90
64939;DHT22;51453;47.738;7.420;2022-12-16T07:14:38;-1.70;99.90
64939;DHT22;51453;47.738;7.420;2022-12-16T07:17:22;-1.60;99.90
64939;DHT22;51453;47.738;7.420;2022-12-16T07:20:07;-1.70;99.90
64939;DHT22;51453;47.738;7.420;2022-12-16T07:22:51;-1.60;99.90
64939;DHT22;51453;47.738;7.420;2022-12-16T07:25:35;-1.60;99.90
64939;DHT22;51453;47.738;7.420;2022-12-16T07:28:20;-1.60;99.90
64939;DHT22;51453;47.738;7.420;2022-12-16T07:31:04;-1.60;99.90
64939;DHT22;51453;47.738;7.420;2022-12-16T07:33:48;-1.60;99.90
64939;DHT22;51453;47.738;7.420;2022-12-16T07:36:32;-1.60;99.90
64939;DHT22;51453;47.738;7.420;2022-12-16T07:39:16;-1.60;99.90
64939;DHT22;51453;47.738;7.420;2022-12-16T07:42:00;-1.50;99.90
64939;DHT22;51453;47.738;7.420;2022-12-16T07:44:44;-1.50;99.90
64939;DHT22;51453;47.738;7.420;2022-12-16T07:47:28;-1.50;99.90
64939;DHT22;51453;47.738;7.420;2022-12-16T07:50:12;-1.50;99.90
64939;DHT22;51453;47.738;7.420;2022-12-16T07:52:57;-1.50;99.90
64939;DHT22;51453;47.738;7.420;2022-12-16T07:55:42;-1.50;99.90
64939;DHT22;51453;47.738;7.420;2022-12-16T07:58:26;-1.50;99.90
64939;DHT22;51453;47.738;7.420;2022-12-16T08:01:11;-1.40;99.90
64939;DHT22;51453;47.738;7.420;2022-12-16T08:03:55;-1.40;99.90
64939;DHT22;51453;47.738;7.420;2022-12-16T08:06:39;-1.40;99.90
64939;DHT22;51453;47.738;7.420;2022-12-16T08:09:23;-1.30;99.90
64939;DHT22;51453;47.738;7.420;2022-12-16T08:12:07;-1.30;99.90
64939;DHT22;51453;47.738;7.420;2022-12-16T08:14:51;-1.30;99.90
64939;DHT22;51453;47.738;7.420;2022-12-16T08:17:35;-1.30;99.90
64939;DHT22;51453;47.738;7.420;2022-12-16T08:20:20;-1.30;99.90
64939;DHT22;51453;47.738;7.420;2022-12-16T08:23:05;-1.30;99.90
64939;DHT22;51453;47.738;7.420;2022-12-16T08:25:49;-1.30;99.90
64939;DHT22;51453;47.738;7.420;2022-12-16T08:28:33;-1.30;99.90
64939;DHT22;51453;47.738;7.420;2022-12-16T08:31:18;-1.30;99.90
64939;DHT22;51453;47.738;7.420;2022-12-16T08:34:02;-1.30;99.90
64939;DHT22;51453;47.738;7.420;2022-12-16T08:36:48;-1.30;99.90
64939;DHT22;51453;47.738;7.420;2022-12-16T08:39:33;-1.30;99.90
64939;DHT22;51453;47.738;7.420;2022-12-16T08:42:17;-1.40;99.90
64939;DHT22;51453;47.738;7.420;2022-12-16T08:45:01;-1.30;99.90
64939;DHT22;51453;47.738;7.420;2022-12-16T08:47:45;-1.30;99.90
64939;DHT22;51453;47.738;7.420;2022-12-16T08:50:29;-1.30;99.90
64939;DHT22;51453;47.738;7.420;2022-12-16T08:53:13;-1.30;99.90
64939;DHT22;51453;47.738;7.420;2022-12-16T08:55:57;-1.30;99.90
64939;DHT22;51453;47.738;7.420;2022-12-16T08:58:41;-1.30;99.90
64939;DHT22;51453;47.738;7.420;2022-12-16T09:01:26;-1.30;99.90
64939;DHT22;51453;47.738;7.420;2022-12-16T09:04:10;-1.30;99.90
64939;DHT22;51453;47.738;7.420;2022-12-16T09:06:54;-1.30;99.90
64939;DHT22;51453;47.738;7.420;2022-12-16T09:09:38;-1.30;99.90
64939;DHT22;51453;47.738;7.420;2022-12-16T09:12:22;-1.30;99.90
64939;DHT22;51453;47.738;7.420;2022-12-16T09:15:08;-1.30;99.90
64939;DHT22;51453;47.738;7.420;2022-12-16T09:17:54;-1.20;99.90
64939;DHT22;51453;47.738;7.420;2022-12-16T09:20:38;-1.10;99.90
64939;DHT22;51453;47.738;7.420;2022-12-16T09:23:22;-1.10;99.90
64939;DHT22;51453;47.738;7.420;2022-12-16T09:26:06;-1.10;99.90
64939;DHT22;51453;47.738;7.420;2022-12-16T09:28:51;-1.10;99.90
64939;DHT22;51453;47.738;7.420;2022-12-16T09:31:35;-1.10;99.90
64939;DHT22;51453;47.738;7.420;2022-12-16T09:34:19;-1.10;99.90
64939;DHT22;51453;47.738;7.420;2022-12-16T09:37:03;-1.10;99.90
64939;DHT22;51453;47.738;7.420;2022-12-16T09:39:47;-1.10;99.90
64939;DHT22;51453;47.738;7.420;2022-12-16T09:42:47;-1.10;99.90
64939;DHT22;51453;47.738;7.420;2022-12-16T09:51:26;-0.70;99.90
64939;DHT22;51453;47.738;7.420;2022-12-16T09:54:15;-0.70;99.90
64939;DHT22;51453;47.738;7.420;2022-12-16T09:57:11;-0.80;99.90
64939;DHT22;51453;47.738;7.420;2022-12-16T10:00:09;-0.90;99.90
64939;DHT22;51453;47.738;7.420;2022-12-16T10:02:56;-0.90;99.90
64939;DHT22;51453;47.738;7.420;2022-12-16T10:05:47;-0.90;99.90
64939;DHT22;51453;47.738;7.420;2022-12-16T10:08:43;-1.00;99.90
64939;DHT22;51453;47.738;7.420;2022-12-16T10:11:54;-1.10;99.90
64939;DHT22;51453;47.738;7.420;2022-12-16T10:14:39;-1.10;99.90
64939;DHT22;51453;47.738;7.420;2022-12-16T10:17:27;-1.10;99.90
64939;DHT22;51453;47.738;7.420;2022-12-16T10:20:13;-1.10;99.90
64939;DHT22;51453;47.738;7.420;2022-12-16T10:23:24;-1.10;99.90
64939;DHT22;51453;47.738;7.420;2022-12-16T10:29:30;-1.00;99.90
64939;DHT22;51453;47.738;7.420;2022-12-16T10:32:40;-0.90;99.90
64939;DHT22;51453;47.738;7.420;2022-12-16T10:35:34;-0.90;99.90
64939;DHT22;51453;47.738;7.420;2022-12-16T10:38:43;-1.00;99.90
64939;DHT22;51453;47.738;7.420;2022-12-16T10:41:31;-1.10;99.90
64939;DHT22;51453;47.738;7.420;2022-12-16T10:44:23;-1.10;99.90
64939;DHT22;51453;47.738;7.420;2022-12-16T10:47:09;-1.00;99.90
64939;DHT22;51453;47.738;7.420;2022-12-16T10:49:54;-1.00;99.90
64939;DHT22;51453;47.738;7.420;2022-12-16T10:53:19;-1.00;99.90
64939;DHT22;51453;47.738;7.420;2022-12-16T10:59:19;-1.10;99.90
64939;DHT22;51453;47.738;7.420;2022-12-16T11:02:26;-1.10;99.90
64939;DHT22;51453;47.738;7.420;2022-12-16T11:08:30;-0.80;99.90
64939;DHT22;51453;47.738;7.420;2022-12-16T11:14:23;-0.90;99.90
64939;DHT22;51453;47.738;7.420;2022-12-16T11:20:18;-1.10;99.90
64939;DHT22;51453;47.738;7.420;2022-12-16T11:23:21;-1.10;99.90
64939;DHT22;51453;47.738;7.420;2022-12-16T11:29:16;-1.10;99.90
64939;DHT22;51453;47.738;7.420;2022-12-16T11:34:52;-1.00;99.90
64939;DHT22;51453;47.738;7.420;2022-12-16T11:37:39;-1.00;99.90
64939;DHT22;51453;47.738;7.420;2022-12-16T11:40:23;-1.20;99.90
64939;DHT22;51453;47.738;7.420;2022-12-16T11:43:10;-1.30;99.90
64939;DHT22;51453;47.738;7.420;2022-12-16T11:45:56;-1.40;99.90
64939;DHT22;51453;47.738;7.420;2022-12-16T11:48:48;-1.50;99.90
64939;DHT22;51453;47.738;7.420;2022-12-16T11:51:34;-1.60;99.90
64939;DHT22;51453;47.738;7.420;2022-12-16T11:54:32;-1.60;99.90
64939;DHT22;51453;47.738;7.420;2022-12-16T11:57:43;-1.70;99.90
64939;DHT22;51453;47.738;7.420;2022-12-16T12:00:29;-1.70;99.90
64939;DHT22;51453;47.738;7.420;2022-12-16T12:03:19;-1.60;99.90
64939;DHT22;51453;47.738;7.420;2022-12-16T12:09:08;-1.30;99.90
64939;DHT22;51453;47.738;7.420;2022-12-16T12:20:39;-0.20;99.90
64939;DHT22;51453;47.738;7.420;2022-12-16T12:26:22;0.00;99.90
64939;DHT22;51453;47.738;7.420;2022-12-16T12:32:26;-0.40;99.90
64939;DHT22;51453;47.738;7.420;2022-12-16T12:41:36;-0.20;99.90
64939;DHT22;51453;47.738;7.420;2022-12-16T12:47:45;-0.10;99.90
64939;DHT22;51453;47.738;7.420;2022-12-16T12:54:22;-0.20;99.90
64939;DHT22;51453;47.738;7.420;2022-12-16T12:57:10;-0.30;99.90
64939;DHT22;51453;47.738;7.420;2022-12-16T13:00:22;-0.50;99.90
64939;DHT22;51453;47.738;7.420;2022-12-16T13:06:13;-0.90;99.90
64939;DHT22;51453;47.738;7.420;2022-12-16T13:09:00;-1.10;99.90
64939;DHT22;51453;47.738;7.420;2022-12-16T13:20:45;-1.00;99.90
64939;DHT22;51453;47.738;7.420;2022-12-16T13:23:32;-1.00;99.90
64939;DHT22;51453;47.738;7.420;2022-12-16T13:26:22;-1.10;99.90
64939;DHT22;51453;47.738;7.420;2022-12-16T13:29:18;-1.20;99.90
64939;DHT22;51453;47.738;7.420;2022-12-16T13:32:23;-1.10;99.90
64939;DHT22;51453;47.738;7.420;2022-12-16T13:37:54;-1.10;99.90
64939;DHT22;51453;47.738;7.420;2022-12-16T13:40:59;-1.10;99.90
64939;DHT22;51453;47.738;7.420;2022-12-16T13:55:31;-1.30;99.90
64939;DHT22;51453;47.738;7.420;2022-12-16T13:58:49;-1.40;99.90
64939;DHT22;51453;47.738;7.420;2022-12-16T14:04:43;-1.50;99.90
64939;DHT22;51453;47.738;7.420;2022-12-16T14:07:32;-1.50;99.90
64939;DHT22;51453;47.738;7.420;2022-12-16T14:10:30;-1.50;99.90
64939;DHT22;51453;47.738;7.420;2022-12-16T14:13:41;-1.50;99.90
64939;DHT22;51453;47.738;7.420;2022-12-16T14:16:36;-1.50;99.90
64939;DHT22;51453;47.738;7.420;2022-12-16T14:19:32;-1.50;99.90
64939;DHT22;51453;47.738;7.420;2022-12-16T14:25:18;-1.50;99.90
64939;DHT22;51453;47.738;7.420;2022-12-16T14:28:13;-1.60;99.90
64939;DHT22;51453;47.738;7.420;2022-12-16T14:31:16;-1.60;99.90
64939;DHT22;51453;47.738;7.420;2022-12-16T14:34:02;-1.60;99.90
64939;DHT22;51453;47.738;7.420;2022-12-16T14:36:47;-1.60;99.90
64939;DHT22;51453;47.738;7.420;2022-12-16T14:39:39;-1.70;99.90
64939;DHT22;51453;47.738;7.420;2022-12-16T14:42:27;-1.80;99.90
64939;DHT22;51453;47.738;7.420;2022-12-16T14:54:20;-2.00;99.90
64939;DHT22;51453;47.738;7.420;2022-12-16T14:57:13;-2.00;99.90
64939;DHT22;51453;47.738;7.420;2022-12-16T15:06:05;-2.20;99.90
64939;DHT22;51453;47.738;7.420;2022-12-16T15:08:54;-2.30;99.90
64939;DHT22;51453;47.738;7.420;2022-12-16T15:11:39;-2.40;99.90
64939;DHT22;51453;47.738;7.420;2022-12-16T15:14:30;-2.50;99.90
64939;DHT22;51453;47.738;7.420;2022-12-16T15:17:22;-2.50;99.90
64939;DHT22;51453;47.738;7.420;2022-12-16T15:20:18;-2.50;99.90
64939;DHT22;51453;47.738;7.420;2022-12-16T15:23:02;-2.60;99.90
64939;DHT22;51453;47.738;7.420;2022-12-16T15:25:49;-2.60;99.90
64939;DHT22;51453;47.738;7.420;2022-12-16T15:28:44;-2.70;99.90
64939;DHT22;51453;47.738;7.420;2022-12-16T15:31:34;-2.80;99.90
64939;DHT22;51453;47.738;7.420;2022-12-16T15:34:46;-2.80;99.90
64939;DHT22;51453;47.738;7.420;2022-12-16T15:37:36;-2.90;99.90
64939;DHT22;51453;47.738;7.420;2022-12-16T15:40:27;-3.00;99.90
64939;DHT22;51453;47.738;7.420;2022-12-16T15:43:27;-3.00;99.90
64939;DHT22;51453;47.738;7.420;2022-12-16T15:46:26;-3.00;99.90
64939;DHT22;51453;47.738;7.420;2022-12-16T15:52:41;-3.10;99.90
64939;DHT22;51453;47.738;7.420;2022-12-16T15:55:34;-3.20;99.90
64939;DHT22;51453;47.738;7.420;2022-12-16T15:58:26;-3.30;99.90
64939;DHT22;51453;47.738;7.420;2022-12-16T16:01:11;-3.30;99.90
64939;DHT22;51453;47.738;7.420;2022-12-16T16:03:57;-3.30;99.90
64939;DHT22;51453;47.738;7.420;2022-12-16T16:06:46;-3.40;99.90
64939;DHT22;51453;47.738;7.420;2022-12-16T16:09:32;-3.50;99.90
64939;DHT22;51453;47.738;7.420;2022-12-16T16:12:19;-3.50;99.90
64939;DHT22;51453;47.738;7.420;2022-12-16T16:15:06;-3.60;99.90
64939;DHT22;51453;47.738;7.420;2022-12-16T16:18:02;-3.60;99.90
64939;DHT22;51453;47.738;7.420;2022-12-16T16:20:48;-3.60;99.90
64939;DHT22;51453;47.738;7.420;2022-12-16T16:23:32;-3.60;99.90
64939;DHT22;51453;47.738;7.420;2022-12-16T16:26:20;-3.60;99.90
64939;DHT22;51453;47.738;7.420;2022-12-16T16:29:05;-3.50;99.90
64939;DHT22;51453;47.738;7.420;2022-12-16T16:31:49;-3.50;99.90
64939;DHT22;51453;47.738;7.420;2022-12-16T16:34:33;-3.60;99.90
64939;DHT22;51453;47.738;7.420;2022-12-16T16:37:19;-3.70;99.90
64939;DHT22;51453;47.738;7.420;2022-12-16T16:40:37;-3.70;99.90
64939;DHT22;51453;47.738;7.420;2022-12-16T16:43:22;-3.80;99.90
64939;DHT22;51453;47.738;7.420;2022-12-16T16:49:21;-3.90;99.90
64939;DHT22;51453;47.738;7.420;2022-12-16T16:52:10;-3.90;99.90
64939;DHT22;51453;47.738;7.420;2022-12-16T16:54:54;-3.90;99.90
64939;DHT22;51453;47.738;7.420;2022-12-16T16:57:38;-3.90;99.90
64939;DHT22;51453;47.738;7.420;2022-12-16T17:00:23;-3.90;99.90
64939;DHT22;51453;47.738;7.420;2022-12-16T17:03:08;-3.90;99.90
64939;DHT22;51453;47.738;7.420;2022-12-16T17:05:52;-3.90;99.90
64939;DHT22;51453;47.738;7.420;2022-12-16T17:08:37;-4.00;99.90
64939;DHT22;51453;47.738;7.420;2022-12-16T17:11:21;-4.00;99.90
64939;DHT22;51453;47.738;7.420;2022-12-16T17:14:12;-4.10;99.90
64939;DHT22;51453;47.738;7.420;2022-12-16T17:16:57;-4.10;99.90
64939;DHT22;51453;47.738;7.420;2022-12-16T17:19:42;-4.20;99.90
64939;DHT22;51453;47.738;7.420;2022-12-16T17:22:26;-4.30;99.90
64939;DHT22;51453;47.738;7.420;2022-12-16T17:25:10;-4.40;99.90
64939;DHT22;51453;47.738;7.420;2022-12-16T17:27:54;-4.50;99.90
64939;DHT22;51453;47.738;7.420;2022-12-16T17:30:38;-4.50;99.90
64939;DHT22;51453;47.738;7.420;2022-12-16T17:33:23;-4.60;99.90
64939;DHT22;51453;47.738;7.420;2022-12-16T17:36:12;-4.70;99.90
64939;DHT22;51453;47.738;7.420;2022-12-16T17:38:57;-4.80;99.90
64939;DHT22;51453;47.738;7.420;2022-12-16T17:41:41;-4.90;99.90
64939;DHT22;51453;47.738;7.420;2022-12-16T17:44:25;-4.90;99.90
64939;DHT22;51453;47.738;7.420;2022-12-16T17:47:09;-5.00;99.90
64939;DHT22;51453;47.738;7.420;2022-12-16T17:49:54;-5.00;99.90
64939;DHT22;51453;47.738;7.420;2022-12-16T17:52:38;-5.10;99.90
64939;DHT22;51453;47.738;7.420;2022-12-16T17:55:22;-5.20;99.90
64939;DHT22;51453;47.738;7.420;2022-12-16T17:58:07;-5.20;99.90
64939;DHT22;51453;47.738;7.420;2022-12-16T18:00:51;-5.10;99.90
64939;DHT22;51453;47.738;7.420;2022-12-16T18:03:35;-5.10;99.90
64939;DHT22;51453;47.738;7.420;2022-12-16T18:06:19;-5.00;99.90
64939;DHT22;51453;47.738;7.420;2022-12-16T18:09:03;-5.00;99.90
64939;DHT22;51453;47.738;7.420;2022-12-16T18:11:47;-5.00;99.90
64939;DHT22;51453;47.738;7.420;2022-12-16T18:14:36;-5.00;99.90
64939;DHT22;51453;47.738;7.420;2022-12-16T18:17:20;-5.00;99.90
64939;DHT22;51453;47.738;7.420;2022-12-16T18:20:05;-5.00;99.90
64939;DHT22;51453;47.738;7.420;2022-12-16T18:22:51;-5.00;99.90
64939;DHT22;51453;47.738;7.420;2022-12-16T18:25:36;-5.00;99.90
64939;DHT22;51453;47.738;7.420;2022-12-16T18:28:20;-4.90;99.90
64939;DHT22;51453;47.738;7.420;2022-12-16T18:31:04;-4.80;99.90
64939;DHT22;51453;47.738;7.420;2022-12-16T18:33:49;-4.70;99.90
64939;DHT22;51453;47.738;7.420;2022-12-16T18:36:33;-4.50;99.90
64939;DHT22;51453;47.738;7.420;2022-12-16T18:39:17;-4.50;99.90
64939;DHT22;51453;47.738;7.420;2022-12-16T18:42:01;-4.30;99.90
64939;DHT22;51453;47.738;7.420;2022-12-16T18:44:53;-4.30;99.90
64939;DHT22;51453;47.738;7.420;2022-12-16T18:47:37;-4.10;99.90
64939;DHT22;51453;47.738;7.420;2022-12-16T18:50:21;-4.10;99.90
64939;DHT22;51453;47.738;7.420;2022-12-16T18:53:05;-4.00;99.90
64939;DHT22;51453;47.738;7.420;2022-12-16T18:56:05;-4.00;99.90
64939;DHT22;51453;47.738;7.420;2022-12-16T18:58:50;-4.00;99.90
64939;DHT22;51453;47.738;7.420;2022-12-16T19:01:34;-4.00;99.90
64939;DHT22;51453;47.738;7.420;2022-12-16T19:04:18;-4.00;99.90
64939;DHT22;51453;47.738;7.420;2022-12-16T19:07:02;-4.00;99.90
64939;DHT22;51453;47.738;7.420;2022-12-16T19:09:46;-4.10;99.90
64939;DHT22;51453;47.738;7.420;2022-12-16T19:12:30;-4.00;99.90
64939;DHT22;51453;47.738;7.420;2022-12-16T19:15:15;-4.10;99.90
64939;DHT22;51453;47.738;7.420;2022-12-16T19:17:59;-4.10;99.90
64939;DHT22;51453;47.738;7.420;2022-12-16T19:20:43;-4.10;99.90
64939;DHT22;51453;47.738;7.420;2022-12-16T19:23:27;-4.10;99.90
64939;DHT22;51453;47.738;7.420;2022-12-16T19:26:11;-4.10;99.90